sensor_id;sensor_type;location;lat;lon;timestamp;temperature;humidity
59301;DHT22;45073;52.740;6.784;2023-02-15T00:01:37;3.00;99.90
59301;DHT22;45073;52.740;6.784;2023-02-15T00:04:04;3.00;99.90
59301;DHT22;45073;52.740;6.784;2023-02-15T00:06:32;2.90;99.90
59301;DHT22;45073;52.740;6.784;2023-02-15T00:08:58;2.90;99.90
59301;DHT22;45073;52.740;6.784;2023-02-15T00:11:24;2.90;99.90
59301;DHT22;45073;52.740;6.784;2023-02-15T00:14:13;2.90;99.90
59301;DHT22;45073;52.740;6.784;2023-02-15T00:16:41;2.80;99.90
59301;DHT22;45073;52.740;6.784;2023-02-15T00:19:08;2.80;99.90
59301;DHT22;45073;52.740;6.784;2023-02-15T00:21:34;2.70;99.90
59301;DHT22;45073;52.740;6.784;2023-02-15T00:24:02;2.70;99.90
59301;DHT22;45073;52.740;6.784;2023-02-15T00:26:28;2.70;99.90
59301;DHT22;45073;52.740;6.784;2023-02-15T00:28:55;2.70;99.90
59301;DHT22;45073;52.740;6.784;2023-02-15T00:31:21;2.70;99.90
59301;DHT22;45073;52.740;6.784;2023-02-15T00:33:47;2.70;99.90
59301;DHT22;45073;52.740;6.784;2023-02-15T00:36:13;2.70;99.90
59301;DHT22;45073;52.740;6.784;2023-02-15T00:38:39;2.70;99.90
59301;DHT22;45073;52.740;6.784;2023-02-15T00:41:06;2.70;99.90
59301;DHT22;45073;52.740;6.784;2023-02-15T00:43:32;2.70;99.90
59301;DHT22;45073;52.740;6.784;2023-02-15T00:45:58;2.70;99.90
59301;DHT22;45073;52.740;6.784;2023-02-15T00:48:25;2.60;99.90
59301;DHT22;45073;52.740;6.784;2023-02-15T00:50:53;2.60;99.90
59301;DHT22;45073;52.740;6.784;2023-02-15T00:53:20;2.50;99.90
59301;DHT22;45073;52.740;6.784;2023-02-15T00:55:46;2.40;99.90
59301;DHT22;45073;52.740;6.784;2023-02-15T00:58:13;2.40;99.90
59301;DHT22;45073;52.740;6.784;2023-02-15T01:00:40;2.30;99.90
59301;DHT22;45073;52.740;6.784;2023-02-15T01:03:06;2.30;99.90
59301;DHT22;45073;52.740;6.784;2023-02-15T01:05:32;2.30;99.90
59301;DHT22;45073;52.740;6.784;2023-02-15T01:07:58;2.20;99.90
59301;DHT22;45073;52.740;6.784;2023-02-15T01:10:25;2.20;99.90
59301;DHT22;45073;52.740;6.784;2023-02-15T01:12:52;2.20;99.90
59301;DHT22;45073;52.740;6.784;2023-02-15T01:15:18;2.10;99.90
59301;DHT22;45073;52.740;6.784;2023-02-15T01:17:44;2.10;99.90
59301;DHT22;45073;52.740;6.784;2023-02-15T01:20:15;2.10;99.90
59301;DHT22;45073;52.740;6.784;2023-02-15T01:22:41;2.10;99.90
59301;DHT22;45073;52.740;6.784;2023-02-15T01:25:06;2.10;99.90
59301;DHT22;45073;52.740;6.784;2023-02-15T01:27:32;2.00;99.90
59301;DHT22;45073;52.740;6.784;2023-02-15T01:29:57;2.00;99.90
59301;DHT22;45073;52.740;6.784;2023-02-15T01:32:23;2.00;99.90
59301;DHT22;45073;52.740;6.784;2023-02-15T01:34:49;2.00;99.90
59301;DHT22;45073;52.740;6.784;2023-02-15T01:37:14;1.90;99.90
59301;DHT22;45073;52.740;6.784;2023-02-15T01:39:40;1.90;99.90
59301;DHT22;45073;52.740;6.784;2023-02-15T01:42:12;2.00;99.90
59301;DHT22;45073;52.740;6.784;2023-02-15T01:44:57;2.00;99.90
59301;DHT22;45073;52.740;6.784;2023-02-15T01:47:33;2.00;99.90
59301;DHT22;45073;52.740;6.784;2023-02-15T01:50:10;2.00;99.90
59301;DHT22;45073;52.740;6.784;2023-02-15T01:52:40;1.90;99.90
59301;DHT22;45073;52.740;6.784;2023-02-15T01:55:06;1.90;99.90
59301;DHT22;45073;52.740;6.784;2023-02-15T01:57:33;1.90;99.90
59301;DHT22;45073;52.740;6.784;2023-02-15T02:00:00;1.90;99.90
59301;DHT22;45073;52.740;6.784;2023-02-15T02:02:28;1.90;99.90
59301;DHT22;45073;52.740;6.784;2023-02-15T02:05:00;1.90;99.90
59301;DHT22;45073;52.740;6.784;2023-02-15T02:07:31;1.80;99.90
59301;DHT22;45073;52.740;6.784;2023-02-15T02:09:57;1.80;99.90
59301;DHT22;45073;52.740;6.784;2023-02-15T02:12:23;1.80;99.90
59301;DHT22;45073;52.740;6.784;2023-02-15T02:14:51;1.80;99.90
59301;DHT22;45073;52.740;6.784;2023-02-15T02:18:00;1.80;99.90
59301;DHT22;45073;52.740;6.784;2023-02-15T02:23:35;1.80;99.90
59301;DHT22;45073;52.740;6.784;2023-02-15T02:34:33;1.60;99.90
59301;DHT22;45073;52.740;6.784;2023-02-15T02:37:08;1.60;99.90
59301;DHT22;45073;52.740;6.784;2023-02-15T02:47:47;1.40;99.90
59301;DHT22;45073;52.740;6.784;2023-02-15T02:50:21;1.40;99.90
59301;DHT22;45073;52.740;6.784;2023-02-15T02:52:48;1.40;99.90
59301;DHT22;45073;52.740;6.784;2023-02-15T02:55:46;1.40;99.90
59301;DHT22;45073;52.740;6.784;2023-02-15T03:01:16;1.40;99.90
59301;DHT22;45073;52.740;6.784;2023-02-15T03:03:47;1.40;99.90
59301;DHT22;45073;52.740;6.784;2023-02-15T03:06:21;1.40;99.90
59301;DHT22;45073;52.740;6.784;2023-02-15T03:08:53;1.50;99.90
59301;DHT22;45073;52.740;6.784;2023-02-15T03:11:19;1.40;99.90
59301;DHT22;45073;52.740;6.784;2023-02-15T03:13:47;1.40;99.90
59301;DHT22;45073;52.740;6.784;2023-02-15T03:16:14;1.40;99.90
59301;DHT22;45073;52.740;6.784;2023-02-15T03:19:15;1.40;99.90
59301;DHT22;45073;52.740;6.784;2023-02-15T03:21:49;1.30;99.90
59301;DHT22;45073;52.740;6.784;2023-02-15T03:24:25;1.30;99.90
59301;DHT22;45073;52.740;6.784;2023-02-15T03:26:52;1.20;99.90
59301;DHT22;45073;52.740;6.784;2023-02-15T03:29:20;1.20;99.90
59301;DHT22;45073;52.740;6.784;2023-02-15T03:31:51;1.10;99.90
59301;DHT22;45073;52.740;6.784;2023-02-15T03:34:19;1.10;99.90
59301;DHT22;45073;52.740;6.784;2023-02-15T03:41:45;1.00;99.90
59301;DHT22;45073;52.740;6.784;2023-02-15T03:44:27;1.00;99.90
59301;DHT22;45073;52.740;6.784;2023-02-15T03:47:06;0.90;99.90
59301;DHT22;45073;52.740;6.784;2023-02-15T03:49:48;0.90;99.90
59301;DHT22;45073;52.740;6.784;2023-02-15T03:52:16;0.90;99.90
59301;DHT22;45073;52.740;6.784;2023-02-15T03:54:43;0.90;99.90
59301;DHT22;45073;52.740;6.784;2023-02-15T03:57:19;1.00;99.90
59301;DHT22;45073;52.740;6.784;2023-02-15T04:03:07;1.00;99.90
59301;DHT22;45073;52.740;6.784;2023-02-15T04:05:34;1.00;99.90
59301;DHT22;45073;52.740;6.784;2023-02-15T04:07:59;1.10;99.90
59301;DHT22;45073;52.740;6.784;2023-02-15T04:10:25;1.10;99.90
59301;DHT22;45073;52.740;6.784;2023-02-15T04:13:09;1.00;99.90
59301;DHT22;45073;52.740;6.784;2023-02-15T04:15:34;1.00;99.90
59301;DHT22;45073;52.740;6.784;2023-02-15T04:18:18;1.00;99.90
59301;DHT22;45073;52.740;6.784;2023-02-15T04:20:45;1.00;99.90
59301;DHT22;45073;52.740;6.784;2023-02-15T04:23:29;1.00;99.90
59301;DHT22;45073;52.740;6.784;2023-02-15T04:26:13;1.00;99.90
59301;DHT22;45073;52.740;6.784;2023-02-15T04:28:39;0.90;99.90
59301;DHT22;45073;52.740;6.784;2023-02-15T04:31:04;0.90;99.90
59301;DHT22;45073;52.740;6.784;2023-02-15T04:33:30;0.90;99.90
59301;DHT22;45073;52.740;6.784;2023-02-15T04:35:56;0.90;99.90
59301;DHT22;45073;52.740;6.784;2023-02-15T04:38:22;0.90;99.90
59301;DHT22;45073;52.740;6.784;2023-02-15T04:40:51;0.90;99.90
59301;DHT22;45073;52.740;6.784;2023-02-15T04:43:18;1.00;99.90
59301;DHT22;45073;52.740;6.784;2023-02-15T04:45:48;0.90;99.90
59301;DHT22;45073;52.740;6.784;2023-02-15T04:48:14;0.90;99.90
59301;DHT22;45073;52.740;6.784;2023-02-15T04:50:40;0.90;99.90
59301;DHT22;45073;52.740;6.784;2023-02-15T04:53:05;0.90;99.90
59301;DHT22;45073;52.740;6.784;2023-02-15T04:55:31;0.90;99.90
59301;DHT22;45073;52.740;6.784;2023-02-15T04:57:57;0.90;99.90
59301;DHT22;45073;52.740;6.784;2023-02-15T05:00:22;0.90;99.90
59301;DHT22;45073;52.740;6.784;2023-02-15T05:02:48;0.90;99.90
59301;DHT22;45073;52.740;6.784;2023-02-15T05:05:13;0.90;99.90
59301;DHT22;45073;52.740;6.784;2023-02-15T05:07:40;0.90;99.90
59301;DHT22;45073;52.740;6.784;2023-02-15T05:10:06;0.90;99.90
59301;DHT22;45073;52.740;6.784;2023-02-15T05:12:32;0.90;99.90
59301;DHT22;45073;52.740;6.784;2023-02-15T05:14:58;0.90;99.90
59301;DHT22;45073;52.740;6.784;2023-02-15T05:17:23;0.90;99.90
59301;DHT22;45073;52.740;6.784;2023-02-15T05:19:49;0.90;99.90
59301;DHT22;45073;52.740;6.784;2023-02-15T05:22:14;0.80;99.90
59301;DHT22;45073;52.740;6.784;2023-02-15T05:24:40;0.80;99.90
59301;DHT22;45073;52.740;6.784;2023-02-15T05:27:24;0.80;99.90
59301;DHT22;45073;52.740;6.784;2023-02-15T05:30:08;0.80;99.90
59301;DHT22;45073;52.740;6.784;2023-02-15T05:32:37;0.80;99.90
59301;DHT22;45073;52.740;6.784;2023-02-15T05:35:04;0.80;99.90
59301;DHT22;45073;52.740;6.784;2023-02-15T05:37:30;0.80;99.90
59301;DHT22;45073;52.740;6.784;2023-02-15T05:39:56;0.90;99.90
59301;DHT22;45073;52.740;6.784;2023-02-15T05:42:21;0.90;99.90
59301;DHT22;45073;52.740;6.784;2023-02-15T05:44:47;0.90;99.90
59301;DHT22;45073;52.740;6.784;2023-02-15T05:47:12;1.00;99.90
59301;DHT22;45073;52.740;6.784;2023-02-15T05:49:38;1.00;99.90
59301;DHT22;45073;52.740;6.784;2023-02-15T05:52:04;1.10;99.90
59301;DHT22;45073;52.740;6.784;2023-02-15T05:54:29;1.00;99.90
59301;DHT22;45073;52.740;6.784;2023-02-15T05:56:55;1.10;99.90
59301;DHT22;45073;52.740;6.784;2023-02-15T05:59:20;1.10;99.90
59301;DHT22;45073;52.740;6.784;2023-02-15T06:01:46;1.10;99.90
59301;DHT22;45073;52.740;6.784;2023-02-15T06:04:12;1.10;99.90
59301;DHT22;45073;52.740;6.784;2023-02-15T06:06:38;1.10;99.90
59301;DHT22;45073;52.740;6.784;2023-02-15T06:09:04;1.10;99.90
59301;DHT22;45073;52.740;6.784;2023-02-15T06:11:29;1.10;99.90
59301;DHT22;45073;52.740;6.784;2023-02-15T06:13:55;1.10;99.90
59301;DHT22;45073;52.740;6.784;2023-02-15T06:16:21;1.20;99.90
59301;DHT22;45073;52.740;6.784;2023-02-15T06:18:46;1.10;99.90
59301;DHT22;45073;52.740;6.784;2023-02-15T06:21:12;1.10;99.90
59301;DHT22;45073;52.740;6.784;2023-02-15T06:23:38;1.10;99.90
59301;DHT22;45073;52.740;6.784;2023-02-15T06:26:03;1.10;99.90
59301;DHT22;45073;52.740;6.784;2023-02-15T06:28:29;1.00;99.90
59301;DHT22;45073;52.740;6.784;2023-02-15T06:30:55;1.00;99.90
59301;DHT22;45073;52.740;6.784;2023-02-15T06:33:20;1.00;99.90
59301;DHT22;45073;52.740;6.784;2023-02-15T06:35:46;0.90;99.90
59301;DHT22;45073;52.740;6.784;2023-02-15T06:38:12;1.00;99.90
59301;DHT22;45073;52.740;6.784;2023-02-15T06:40:37;1.00;99.90
59301;DHT22;45073;52.740;6.784;2023-02-15T06:43:03;1.10;99.90
59301;DHT22;45073;52.740;6.784;2023-02-15T06:45:29;1.10;99.90
59301;DHT22;45073;52.740;6.784;2023-02-15T06:47:54;1.20;99.90
59301;DHT22;45073;52.740;6.784;2023-02-15T06:50:20;1.20;99.90
59301;DHT22;45073;52.740;6.784;2023-02-15T06:52:46;1.20;99.90
59301;DHT22;45073;52.740;6.784;2023-02-15T06:55:11;1.30;99.90
59301;DHT22;45073;52.740;6.784;2023-02-15T06:57:37;1.30;99.90
59301;DHT22;45073;52.740;6.784;2023-02-15T07:00:03;1.30;99.90
59301;DHT22;45073;52.740;6.784;2023-02-15T07:02:30;1.30;99.90
59301;DHT22;45073;52.740;6.784;2023-02-15T07:04:56;1.40;99.90
59301;DHT22;45073;52.740;6.784;2023-02-15T07:07:22;1.40;99.90
59301;DHT22;45073;52.740;6.784;2023-02-15T07:09:47;1.40;99.90
59301;DHT22;45073;52.740;6.784;2023-02-15T07:12:13;1.40;99.90
59301;DHT22;45073;52.740;6.784;2023-02-15T07:14:58;1.40;99.90
59301;DHT22;45073;52.740;6.784;2023-02-15T07:17:24;1.50;99.90
59301;DHT22;45073;52.740;6.784;2023-02-15T07:19:49;1.50;99.90
59301;DHT22;45073;52.740;6.784;2023-02-15T07:22:15;1.50;99.90
59301;DHT22;45073;52.740;6.784;2023-02-15T07:24:40;1.50;99.90
59301;DHT22;45073;52.740;6.784;2023-02-15T07:27:07;1.50;99.90
59301;DHT22;45073;52.740;6.784;2023-02-15T07:29:33;1.60;99.90
59301;DHT22;45073;52.740;6.784;2023-02-15T07:31:58;1.60;99.90
59301;DHT22;45073;52.740;6.784;2023-02-15T07:34:24;1.70;99.90
59301;DHT22;45073;52.740;6.784;2023-02-15T07:36:53;1.80;99.90
59301;DHT22;45073;52.740;6.784;2023-02-15T07:39:19;1.80;99.90
59301;DHT22;45073;52.740;6.784;2023-02-15T07:41:44;1.90;99.90
59301;DHT22;45073;52.740;6.784;2023-02-15T07:44:14;1.90;99.90
59301;DHT22;45073;52.740;6.784;2023-02-15T07:46:40;1.90;99.90
59301;DHT22;45073;52.740;6.784;2023-02-15T07:49:06;2.00;99.90
59301;DHT22;45073;52.740;6.784;2023-02-15T07:51:32;2.00;99.90
59301;DHT22;45073;52.740;6.784;2023-02-15T07:53:57;2.10;99.90
59301;DHT22;45073;52.740;6.784;2023-02-15T07:56:23;2.10;99.90
59301;DHT22;45073;52.740;6.784;2023-02-15T07:58:49;2.20;99.90
59301;DHT22;45073;52.740;6.784;2023-02-15T08:01:27;2.20;99.90
59301;DHT22;45073;52.740;6.784;2023-02-15T08:03:56;2.30;99.90
59301;DHT22;45073;52.740;6.784;2023-02-15T08:06:24;2.30;99.90
59301;DHT22;45073;52.740;6.784;2023-02-15T08:08:50;2.40;99.90
59301;DHT22;45073;52.740;6.784;2023-02-15T08:11:21;2.50;99.90
59301;DHT22;45073;52.740;6.784;2023-02-15T08:21:33;2.70;99.90
59301;DHT22;45073;52.740;6.784;2023-02-15T08:24:00;2.80;99.90
59301;DHT22;45073;52.740;6.784;2023-02-15T08:26:26;2.90;99.90
59301;DHT22;45073;52.740;6.784;2023-02-15T08:28:53;3.00;99.90
59301;DHT22;45073;52.740;6.784;2023-02-15T08:31:19;3.00;99.90
59301;DHT22;45073;52.740;6.784;2023-02-15T08:33:47;3.10;99.90
59301;DHT22;45073;52.740;6.784;2023-02-15T08:36:18;3.20;99.90
59301;DHT22;45073;52.740;6.784;2023-02-15T08:38:44;3.20;99.90
59301;DHT22;45073;52.740;6.784;2023-02-15T08:43:39;3.30;99.90
59301;DHT22;45073;52.740;6.784;2023-02-15T08:46:06;3.40;99.90
59301;DHT22;45073;52.740;6.784;2023-02-15T08:48:32;3.50;99.90
59301;DHT22;45073;52.740;6.784;2023-02-15T08:50:58;3.50;99.90
59301;DHT22;45073;52.740;6.784;2023-02-15T08:53:23;3.60;99.90
59301;DHT22;45073;52.740;6.784;2023-02-15T08:55:58;3.60;99.90
59301;DHT22;45073;52.740;6.784;2023-02-15T08:58:25;3.70;99.90
59301;DHT22;45073;52.740;6.784;2023-02-15T09:00:51;3.80;99.90
59301;DHT22;45073;52.740;6.784;2023-02-15T09:03:17;3.80;99.90
59301;DHT22;45073;52.740;6.784;2023-02-15T09:05:42;3.90;99.90
59301;DHT22;45073;52.740;6.784;2023-02-15T09:08:08;3.90;99.90
59301;DHT22;45073;52.740;6.784;2023-02-15T09:10:33;4.00;99.90
59301;DHT22;45073;52.740;6.784;2023-02-15T09:12:59;4.10;99.90
59301;DHT22;45073;52.740;6.784;2023-02-15T09:15:25;4.20;99.90
59301;DHT22;45073;52.740;6.784;2023-02-15T09:17:50;4.30;99.90
59301;DHT22;45073;52.740;6.784;2023-02-15T09:20:16;4.40;99.90
59301;DHT22;45073;52.740;6.784;2023-02-15T09:22:42;4.50;99.90
59301;DHT22;45073;52.740;6.784;2023-02-15T09:25:07;4.60;99.90
59301;DHT22;45073;52.740;6.784;2023-02-15T09:27:33;4.70;99.90
59301;DHT22;45073;52.740;6.784;2023-02-15T09:29:58;4.80;99.90
59301;DHT22;45073;52.740;6.784;2023-02-15T09:32:24;4.90;99.90
59301;DHT22;45073;52.740;6.784;2023-02-15T09:34:50;5.00;99.90
59301;DHT22;45073;52.740;6.784;2023-02-15T09:37:15;5.20;99.90
59301;DHT22;45073;52.740;6.784;2023-02-15T09:39:43;5.20;99.90
59301;DHT22;45073;52.740;6.784;2023-02-15T09:48:00;5.60;99.90
59301;DHT22;45073;52.740;6.784;2023-02-15T09:50:39;5.80;99.90
59301;DHT22;45073;52.740;6.784;2023-02-15T09:53:19;5.90;99.90
59301;DHT22;45073;52.740;6.784;2023-02-15T10:15:16;6.90;99.90
59301;DHT22;45073;52.740;6.784;2023-02-15T10:25:42;7.40;99.90
59301;DHT22;45073;52.740;6.784;2023-02-15T10:28:18;7.50;99.90
59301;DHT22;45073;52.740;6.784;2023-02-15T10:33:20;7.70;99.90
59301;DHT22;45073;52.740;6.784;2023-02-15T10:44:06;8.20;99.90
59301;DHT22;45073;52.740;6.784;2023-02-15T10:49:25;8.30;99.90
59301;DHT22;45073;52.740;6.784;2023-02-15T10:54:40;8.60;99.90
59301;DHT22;45073;52.740;6.784;2023-02-15T11:00:11;8.90;99.90
59301;DHT22;45073;52.740;6.784;2023-02-15T11:05:24;9.20;99.90
59301;DHT22;45073;52.740;6.784;2023-02-15T11:07:54;9.30;99.90
59301;DHT22;45073;52.740;6.784;2023-02-15T11:13:09;9.50;99.90
59301;DHT22;45073;52.740;6.784;2023-02-15T11:15:41;9.60;99.90
59301;DHT22;45073;52.740;6.784;2023-02-15T11:20:52;9.90;99.90
59301;DHT22;45073;52.740;6.784;2023-02-15T11:23:19;10.00;99.90
59301;DHT22;45073;52.740;6.784;2023-02-15T11:25:52;10.20;99.90
59301;DHT22;45073;52.740;6.784;2023-02-15T11:28:30;10.40;99.90
59301;DHT22;45073;52.740;6.784;2023-02-15T11:30:58;10.50;99.90
59301;DHT22;45073;52.740;6.784;2023-02-15T11:33:37;10.60;99.90
59301;DHT22;45073;52.740;6.784;2023-02-15T11:39:08;11.00;99.90
59301;DHT22;45073;52.740;6.784;2023-02-15T11:41:38;11.10;99.90
59301;DHT22;45073;52.740;6.784;2023-02-15T11:44:17;11.30;99.90
59301;DHT22;45073;52.740;6.784;2023-02-15T11:46:44;11.40;99.10
59301;DHT22;45073;52.740;6.784;2023-02-15T11:49:30;11.50;99.90
59301;DHT22;45073;52.740;6.784;2023-02-15T11:51:58;11.70;97.90
59301;DHT22;45073;52.740;6.784;2023-02-15T11:54:34;11.80;97.00
59301;DHT22;45073;52.740;6.784;2023-02-15T12:00:33;12.10;94.10
59301;DHT22;45073;52.740;6.784;2023-02-15T12:02:35;12.20;94.20
59301;DHT22;45073;52.740;6.784;2023-02-15T12:05:11;12.30;94.40
59301;DHT22;45073;52.740;6.784;2023-02-15T12:12:44;12.80;91.50
59301;DHT22;45073;52.740;6.784;2023-02-15T12:15:10;13.00;91.20
59301;DHT22;45073;52.740;6.784;2023-02-15T12:17:51;13.30;90.30
59301;DHT22;45073;52.740;6.784;2023-02-15T12:22:49;13.60;85.90
59301;DHT22;45073;52.740;6.784;2023-02-15T12:25:36;13.70;83.40
59301;DHT22;45073;52.740;6.784;2023-02-15T12:28:21;14.00;84.60
59301;DHT22;45073;52.740;6.784;2023-02-15T12:30:47;14.20;83.30
59301;DHT22;45073;52.740;6.784;2023-02-15T12:35:47;14.50;80.30
59301;DHT22;45073;52.740;6.784;2023-02-15T12:38:23;14.70;78.20
59301;DHT22;45073;52.740;6.784;2023-02-15T12:40:58;14.70;77.50
59301;DHT22;45073;52.740;6.784;2023-02-15T12:43:34;14.80;75.00
59301;DHT22;45073;52.740;6.784;2023-02-15T12:46:24;15.00;74.60
59301;DHT22;45073;52.740;6.784;2023-02-15T12:51:50;15.30;70.20
59301;DHT22;45073;52.740;6.784;2023-02-15T12:54:42;15.40;70.00
59301;DHT22;45073;52.740;6.784;2023-02-15T12:57:21;15.40;69.00
59301;DHT22;45073;52.740;6.784;2023-02-15T12:59:55;15.50;69.40
59301;DHT22;45073;52.740;6.784;2023-02-15T13:04:50;16.60;66.30
59301;DHT22;45073;52.740;6.784;2023-02-15T13:07:16;17.20;66.00
59301;DHT22;45073;52.740;6.784;2023-02-15T13:09:42;17.90;64.70
59301;DHT22;45073;52.740;6.784;2023-02-15T13:12:21;18.30;62.00
59301;DHT22;45073;52.740;6.784;2023-02-15T13:14:50;18.50;61.00
59301;DHT22;45073;52.740;6.784;2023-02-15T13:17:20;18.80;60.50
59301;DHT22;45073;52.740;6.784;2023-02-15T13:19:51;18.90;59.60
59301;DHT22;45073;52.740;6.784;2023-02-15T13:22:42;18.70;59.80
59301;DHT22;45073;52.740;6.784;2023-02-15T13:27:46;18.40;58.90
59301;DHT22;45073;52.740;6.784;2023-02-15T13:32:45;18.10;59.80
59301;DHT22;45073;52.740;6.784;2023-02-15T13:35:16;18.10;60.00
59301;DHT22;45073;52.740;6.784;2023-02-15T13:40:29;18.10;59.90
59301;DHT22;45073;52.740;6.784;2023-02-15T13:46:01;18.30;59.70
59301;DHT22;45073;52.740;6.784;2023-02-15T13:48:44;18.60;59.70
59301;DHT22;45073;52.740;6.784;2023-02-15T13:56:24;19.10;58.70
59301;DHT22;45073;52.740;6.784;2023-02-15T14:13:45;20.40;54.00
59301;DHT22;45073;52.740;6.784;2023-02-15T14:18:54;19.60;54.90
59301;DHT22;45073;52.740;6.784;2023-02-15T14:21:36;19.70;54.20
59301;DHT22;45073;52.740;6.784;2023-02-15T14:24:29;19.60;53.70
59301;DHT22;45073;52.740;6.784;2023-02-15T14:27:21;19.20;54.30
59301;DHT22;45073;52.740;6.784;2023-02-15T14:29:56;18.70;54.80
59301;DHT22;45073;52.740;6.784;2023-02-15T14:32:27;18.30;55.70
59301;DHT22;45073;52.740;6.784;2023-02-15T14:34:59;17.90;57.10
59301;DHT22;45073;52.740;6.784;2023-02-15T14:37:35;17.60;57.50
59301;DHT22;45073;52.740;6.784;2023-02-15T14:43:32;17.20;58.20
59301;DHT22;45073;52.740;6.784;2023-02-15T14:48:37;16.60;59.20
59301;DHT22;45073;52.740;6.784;2023-02-15T14:51:04;16.50;60.50
59301;DHT22;45073;52.740;6.784;2023-02-15T14:59:12;16.10;61.10
59301;DHT22;45073;52.740;6.784;2023-02-15T15:01:39;15.90;61.90
59301;DHT22;45073;52.740;6.784;2023-02-15T15:04:08;15.70;62.70
59301;DHT22;45073;52.740;6.784;2023-02-15T15:06:37;15.60;63.00
59301;DHT22;45073;52.740;6.784;2023-02-15T15:09:20;15.40;63.50
59301;DHT22;45073;52.740;6.784;2023-02-15T15:11:54;15.30;63.50
59301;DHT22;45073;52.740;6.784;2023-02-15T15:17:03;15.00;64.00
59301;DHT22;45073;52.740;6.784;2023-02-15T15:22:27;14.70;64.60
59301;DHT22;45073;52.740;6.784;2023-02-15T15:24:58;14.70;64.90
59301;DHT22;45073;52.740;6.784;2023-02-15T15:41:40;14.20;66.00
59301;DHT22;45073;52.740;6.784;2023-02-15T15:47:37;13.90;66.80
59301;DHT22;45073;52.740;6.784;2023-02-15T15:50:14;13.90;67.30
59301;DHT22;45073;52.740;6.784;2023-02-15T15:52:46;13.60;67.80
59301;DHT22;45073;52.740;6.784;2023-02-15T15:55:18;13.50;68.10
59301;DHT22;45073;52.740;6.784;2023-02-15T15:57:48;13.60;68.30
59301;DHT22;45073;52.740;6.784;2023-02-15T16:03:23;13.40;68.70
59301;DHT22;45073;52.740;6.784;2023-02-15T16:05:49;13.20;69.10
59301;DHT22;45073;52.740;6.784;2023-02-15T16:10:58;12.90;69.70
59301;DHT22;45073;52.740;6.784;2023-02-15T16:13:25;12.90;70.10
59301;DHT22;45073;52.740;6.784;2023-02-15T16:15:53;12.90;70.10
59301;DHT22;45073;52.740;6.784;2023-02-15T16:18:24;12.80;69.90
59301;DHT22;45073;52.740;6.784;2023-02-15T16:20:57;12.70;70.10
59301;DHT22;45073;52.740;6.784;2023-02-15T16:23:43;12.60;70.30
59301;DHT22;45073;52.740;6.784;2023-02-15T16:29:18;12.30;70.60
59301;DHT22;45073;52.740;6.784;2023-02-15T16:32:00;12.30;71.20
59301;DHT22;45073;52.740;6.784;2023-02-15T16:34:26;12.20;71.20
59301;DHT22;45073;52.740;6.784;2023-02-15T16:37:16;12.10;71.40
59301;DHT22;45073;52.740;6.784;2023-02-15T16:39:43;11.90;71.70
59301;DHT22;45073;52.740;6.784;2023-02-15T16:42:10;11.90;71.90
59301;DHT22;45073;52.740;6.784;2023-02-15T16:44:37;11.80;72.10
59301;DHT22;45073;52.740;6.784;2023-02-15T16:47:02;11.70;72.30
59301;DHT22;45073;52.740;6.784;2023-02-15T16:49:29;11.60;72.60
59301;DHT22;45073;52.740;6.784;2023-02-15T16:52:03;11.60;72.70
59301;DHT22;45073;52.740;6.784;2023-02-15T16:54:35;11.60;73.20
59301;DHT22;45073;52.740;6.784;2023-02-15T16:57:01;11.50;72.90
59301;DHT22;45073;52.740;6.784;2023-02-15T16:59:38;11.40;73.30
59301;DHT22;45073;52.740;6.784;2023-02-15T17:02:28;11.30;73.90
59301;DHT22;45073;52.740;6.784;2023-02-15T17:05:21;11.20;74.00
59301;DHT22;45073;52.740;6.784;2023-02-15T17:08:16;11.10;74.30
59301;DHT22;45073;52.740;6.784;2023-02-15T17:10:46;11.00;74.60
59301;DHT22;45073;52.740;6.784;2023-02-15T17:13:16;10.90;74.70
59301;DHT22;45073;52.740;6.784;2023-02-15T17:15:44;10.90;75.00
59301;DHT22;45073;52.740;6.784;2023-02-15T17:18:15;10.80;75.20
59301;DHT22;45073;52.740;6.784;2023-02-15T17:20:42;10.80;75.30
59301;DHT22;45073;52.740;6.784;2023-02-15T17:23:25;10.80;75.80
59301;DHT22;45073;52.740;6.784;2023-02-15T17:25:52;10.70;76.10
59301;DHT22;45073;52.740;6.784;2023-02-15T17:28:22;10.70;76.20
59301;DHT22;45073;52.740;6.784;2023-02-15T17:30:51;10.70;76.30
59301;DHT22;45073;52.740;6.784;2023-02-15T17:36:19;10.50;77.20
59301;DHT22;45073;52.740;6.784;2023-02-15T17:41:29;10.40;77.90
59301;DHT22;45073;52.740;6.784;2023-02-15T17:43:55;10.30;78.10
59301;DHT22;45073;52.740;6.784;2023-02-15T17:46:21;10.30;78.50
59301;DHT22;45073;52.740;6.784;2023-02-15T17:48:48;10.30;79.00
59301;DHT22;45073;52.740;6.784;2023-02-15T17:51:14;10.20;79.20
59301;DHT22;45073;52.740;6.784;2023-02-15T17:53:42;10.20;79.70
59301;DHT22;45073;52.740;6.784;2023-02-15T17:56:34;10.10;80.40
59301;DHT22;45073;52.740;6.784;2023-02-15T17:59:00;10.10;80.80
59301;DHT22;45073;52.740;6.784;2023-02-15T18:01:26;10.00;80.90
59301;DHT22;45073;52.740;6.784;2023-02-15T18:04:12;10.00;81.40
59301;DHT22;45073;52.740;6.784;2023-02-15T18:06:56;9.90;81.90
59301;DHT22;45073;52.740;6.784;2023-02-15T18:09:41;9.80;82.40
59301;DHT22;45073;52.740;6.784;2023-02-15T18:12:33;9.80;82.70
59301;DHT22;45073;52.740;6.784;2023-02-15T18:15:01;9.70;83.80
59301;DHT22;45073;52.740;6.784;2023-02-15T18:17:37;9.60;84.40
59301;DHT22;45073;52.740;6.784;2023-02-15T18:20:06;9.60;85.30
59301;DHT22;45073;52.740;6.784;2023-02-15T18:22:32;9.50;85.00
59301;DHT22;45073;52.740;6.784;2023-02-15T18:24:58;9.40;86.20
59301;DHT22;45073;52.740;6.784;2023-02-15T18:27:24;9.30;87.30
59301;DHT22;45073;52.740;6.784;2023-02-15T18:29:50;9.10;88.20
59301;DHT22;45073;52.740;6.784;2023-02-15T18:32:21;9.00;89.30
59301;DHT22;45073;52.740;6.784;2023-02-15T18:34:48;9.00;90.50
59301;DHT22;45073;52.740;6.784;2023-02-15T18:37:19;8.90;91.90
59301;DHT22;45073;52.740;6.784;2023-02-15T18:39:48;8.80;93.20
59301;DHT22;45073;52.740;6.784;2023-02-15T18:44:46;8.70;94.30
59301;DHT22;45073;52.740;6.784;2023-02-15T18:47:12;8.70;93.80
59301;DHT22;45073;52.740;6.784;2023-02-15T18:49:37;8.70;94.10
59301;DHT22;45073;52.740;6.784;2023-02-15T18:52:03;8.70;94.80
59301;DHT22;45073;52.740;6.784;2023-02-15T18:54:29;8.70;94.60
59301;DHT22;45073;52.740;6.784;2023-02-15T18:56:56;8.60;94.40
59301;DHT22;45073;52.740;6.784;2023-02-15T18:59:24;8.60;94.50
59301;DHT22;45073;52.740;6.784;2023-02-15T19:01:50;8.60;94.70
59301;DHT22;45073;52.740;6.784;2023-02-15T19:04:16;8.60;94.60
59301;DHT22;45073;52.740;6.784;2023-02-15T19:06:47;8.60;94.80
59301;DHT22;45073;52.740;6.784;2023-02-15T19:09:16;8.60;95.40
59301;DHT22;45073;52.740;6.784;2023-02-15T19:11:47;8.50;95.50
59301;DHT22;45073;52.740;6.784;2023-02-15T19:14:26;8.50;95.60
59301;DHT22;45073;52.740;6.784;2023-02-15T19:16:52;8.50;96.30
59301;DHT22;45073;52.740;6.784;2023-02-15T19:19:18;8.40;95.80
59301;DHT22;45073;52.740;6.784;2023-02-15T19:21:44;8.40;95.90
59301;DHT22;45073;52.740;6.784;2023-02-15T19:24:23;8.30;96.10
59301;DHT22;45073;52.740;6.784;2023-02-15T19:26:51;8.30;97.60
59301;DHT22;45073;52.740;6.784;2023-02-15T19:29:24;8.30;96.90